createdAt,value
2023-04-16T00:03:41.992Z,100307.20
2023-04-16T00:08:44.889Z,100305.67
2023-04-16T00:13:47.598Z,100307.79
2023-04-16T00:18:50.594Z,100312.11
2023-04-16T00:23:53.633Z,100309.89
2023-04-16T00:28:56.307Z,100308.39
2023-04-16T00:33:59.664Z,100310.64
2023-04-16T00:39:02.423Z,100309.10
2023-04-16T00:44:05.334Z,100314.09
2023-04-16T00:49:08.443Z,100318.89
2023-04-16T00:54:11.730Z,100315.39
2023-04-16T00:59:14.937Z,100319.17
2023-04-16T01:04:17.616Z,100316.91
2023-04-16T01:09:20.386Z,100317.15
2023-04-16T01:14:23.126Z,100316.86
2023-04-16T01:19:26.182Z,100314.38
2023-04-16T01:24:28.950Z,100309.55
2023-04-16T01:29:31.660Z,100308.39
2023-04-16T01:34:34.375Z,100304.20
2023-04-16T01:39:37.066Z,100307.98
2023-04-16T01:44:40.391Z,100301.20
2023-04-16T01:49:45.769Z,100306.11
2023-04-16T01:54:48.528Z,100304.15
2023-04-16T01:59:51.318Z,100305.16
2023-04-16T02:04:54.001Z,100308.53
2023-04-16T02:09:58.027Z,100308.95
2023-04-16T02:15:00.750Z,100314.85
2023-04-16T02:20:05.807Z,100311.52
2023-04-16T02:25:08.613Z,100310.05
2023-04-16T02:30:12.347Z,100317.29
2023-04-16T02:35:15.123Z,100317.86
2023-04-16T02:40:17.925Z,100318.30
2023-04-16T02:45:21.287Z,100319.45
2023-04-16T02:50:24.044Z,100319.35
2023-04-16T02:55:26.901Z,100324.11
2023-04-16T03:00:29.862Z,100323.47
2023-04-16T03:05:32.581Z,100326.52
2023-04-16T03:10:36.379Z,100334.55
2023-04-16T03:15:39.141Z,100337.03
2023-04-16T03:20:41.944Z,100340.08
2023-04-16T03:25:48.130Z,100343.34
2023-04-16T03:30:52.975Z,100343.09
2023-04-16T03:35:57.323Z,100345.67
2023-04-16T03:41:00.196Z,100349.30
2023-04-16T03:46:02.962Z,100351.87
2023-04-16T03:51:05.950Z,100357.35
2023-04-16T03:56:08.667Z,100358.60
2023-04-16T04:01:11.435Z,100358.80
2023-04-16T04:06:14.180Z,100362.20
2023-04-16T04:11:16.907Z,100365.54
2023-04-16T04:16:19.701Z,100369.30
2023-04-16T04:21:22.535Z,100374.78
2023-04-16T04:26:25.563Z,100381.27
2023-04-16T04:31:28.558Z,100387.78
2023-04-16T04:36:31.289Z,100389.13
2023-04-16T04:41:33.981Z,100389.09
2023-04-16T04:46:36.758Z,100399.85
2023-04-16T04:51:39.474Z,100403.20
2023-04-16T04:56:42.236Z,100407.47
2023-04-16T05:01:44.933Z,100412.52
2023-04-16T05:06:47.754Z,100417.19
2023-04-16T05:11:50.439Z,100423.33
2023-04-16T05:16:54.228Z,100423.32
2023-04-16T05:21:57.085Z,100430.95
2023-04-16T05:26:59.988Z,100427.06
2023-04-16T05:32:02.995Z,100437.64
2023-04-16T05:37:05.908Z,100447.29
2023-04-16T05:42:09.117Z,100454.12
2023-04-16T05:47:12.095Z,100451.81
2023-04-16T05:52:15.521Z,100459.13
2023-04-16T05:57:18.258Z,100457.96
2023-04-16T06:02:21.231Z,100459.91
2023-04-16T06:07:24.217Z,100462.98
2023-04-16T06:12:27.242Z,100463.15
2023-04-16T06:17:29.969Z,100472.48
2023-04-16T06:22:32.845Z,100474.83
2023-04-16T06:27:35.854Z,100476.52
2023-04-16T06:32:38.777Z,100478.52
2023-04-16T06:37:41.766Z,100476.69
2023-04-16T06:42:45.625Z,100482.80
2023-04-16T06:47:48.703Z,100484.15
2023-04-16T06:52:51.492Z,100483.37
2023-04-16T06:57:54.192Z,100491.30
2023-04-16T07:02:58.656Z,100495.20
2023-04-16T07:08:01.739Z,100499.60
2023-04-16T07:13:04.541Z,100497.79
2023-04-16T07:18:07.318Z,100501.05
2023-04-16T07:23:10.124Z,100510.55
2023-04-16T07:28:13.263Z,100516.52
2023-04-16T07:33:15.872Z,100518.15
2023-04-16T07:38:18.599Z,100522.45
2023-04-16T07:43:25.453Z,100522.66
2023-04-16T07:48:28.181Z,100525.82
2023-04-16T07:53:31.455Z,100531.35
2023-04-16T07:58:34.107Z,100531.27
2023-04-16T08:03:37.073Z,100533.98
2023-04-16T08:08:40.019Z,100534.75
2023-04-16T08:13:42.838Z,100536.23
2023-04-16T08:18:45.672Z,100536.91
2023-04-16T08:23:48.574Z,100549.21
2023-04-16T08:28:51.266Z,100552.11
2023-04-16T08:33:54.157Z,100553.48
2023-04-16T08:38:56.923Z,100555.94
2023-04-16T08:44:03.477Z,100563.73
2023-04-16T08:49:08.074Z,100567.05
2023-04-16T08:54:15.395Z,100573.45
2023-04-16T08:59:19.108Z,100578.64
2023-04-16T09:04:23.621Z,100579.00
2023-04-16T09:09:27.028Z,100584.33
2023-04-16T09:14:29.850Z,100589.34
2023-04-16T09:19:32.592Z,100593.40
2023-04-16T09:24:35.700Z,100591.63
2023-04-16T09:29:39.510Z,100591.91
2023-04-16T09:34:55.747Z,100596.38
2023-04-16T09:40:06.670Z,100600.89
2023-04-16T09:45:10.015Z,100603.80
2023-04-16T09:50:18.587Z,100607.52
2023-04-16T09:55:27.699Z,100613.05
2023-04-16T10:00:31.706Z,100619.85
2023-04-16T10:05:34.675Z,100620.50
2023-04-16T10:10:38.173Z,100625.88
2023-04-16T10:15:40.987Z,100631.94
2023-04-16T10:20:44.493Z,100631.73
2023-04-16T10:25:49.358Z,100635.67
2023-04-16T10:30:53.098Z,100636.75
2023-04-16T10:36:13.676Z,100641.66
2023-04-16T10:41:16.789Z,100644.38
2023-04-16T10:46:24.124Z,100646.90
2023-04-16T10:51:32.768Z,100647.78
2023-04-16T10:56:36.830Z,100648.63
2023-04-16T11:01:44.419Z,100652.64
2023-04-16T11:07:13.888Z,100660.23
2023-04-16T11:12:23.430Z,100663.62
2023-04-16T11:17:31.015Z,100665.43
2023-04-16T11:22:39.293Z,100671.70
2023-04-16T11:27:41.979Z,100677.40
2023-04-16T11:32:45.416Z,100678.98
2023-04-16T11:37:51.201Z,100672.83
2023-04-16T11:42:53.865Z,100676.18
2023-04-16T11:47:58.040Z,100677.02
2023-04-16T11:53:05.906Z,100679.12
2023-04-16T11:58:13.081Z,100684.48
2023-04-16T12:03:16.576Z,100692.73
2023-04-16T12:08:32.987Z,100697.04
2023-04-16T12:13:40.058Z,100701.55
2023-04-16T12:19:01.296Z,100706.09
2023-04-16T12:24:04.839Z,100706.82
2023-04-16T12:29:27.979Z,100713.88
2023-04-16T12:34:48.376Z,100711.80
2023-04-16T12:39:52.060Z,100709.02
2023-04-16T12:44:54.750Z,100709.44
2023-04-16T12:49:58.048Z,100708.33
2023-04-16T12:55:02.774Z,100711.86
2023-04-16T13:00:06.826Z,100709.96
2023-04-16T13:05:10.274Z,100710.77
2023-04-16T13:10:13.802Z,100711.91
2023-04-16T13:15:16.794Z,100714.22
2023-04-16T13:20:19.509Z,100712.29
2023-04-16T13:25:22.815Z,100712.90
2023-04-16T13:30:26.154Z,100709.55
2023-04-16T13:35:29.397Z,100716.17
2023-04-16T13:40:32.103Z,100721.52
2023-04-16T13:45:34.993Z,100720.82
2023-04-16T13:50:37.725Z,100719.25
2023-04-16T13:55:40.454Z,100719.17
2023-04-16T14:00:43.888Z,100719.46
2023-04-16T14:05:46.752Z,100719.80
2023-04-16T14:10:49.499Z,100721.48
2023-04-16T14:15:55.864Z,100723.36
2023-04-16T14:20:58.956Z,100722.35
2023-04-16T14:26:01.713Z,100723.90
2023-04-16T14:31:04.690Z,100725.60
2023-04-16T14:36:07.759Z,100727.11
2023-04-16T14:41:12.508Z,100728.05
2023-04-16T14:46:17.742Z,100726.55
2023-04-16T14:51:20.720Z,100730.23
2023-04-16T14:56:23.410Z,100729.42
2023-04-16T15:01:28.517Z,100732.94
2023-04-16T15:06:36.726Z,100738.89
2023-04-16T15:11:39.769Z,100744.23
2023-04-16T15:16:42.695Z,100739.23
2023-04-16T15:21:47.586Z,100741.36
2023-04-16T15:26:51.585Z,100742.23
2023-04-16T15:31:54.289Z,100747.20
2023-04-16T15:36:57.063Z,100746.64
2023-04-16T15:42:01.117Z,100752.07
2023-04-16T15:47:06.524Z,100750.06
2023-04-16T15:52:09.532Z,100756.51
2023-04-16T15:57:12.337Z,100755.98
2023-04-16T16:02:15.705Z,100761.27
2023-04-16T16:07:20.096Z,100766.14
2023-04-16T16:12:23.214Z,100763.34
2023-04-16T16:17:26.571Z,100767.45
2023-04-16T16:22:29.882Z,100774.23
2023-04-16T16:27:32.600Z,100777.16
2023-04-16T16:32:35.377Z,100779.15
2023-04-16T16:37:38.495Z,100780.50
2023-04-16T16:42:41.144Z,100782.54
2023-04-16T16:47:43.994Z,100788.85
2023-04-16T16:52:46.718Z,100788.20
2023-04-16T16:57:49.663Z,100790.20
2023-04-16T17:02:52.808Z,100789.33
2023-04-16T17:07:55.674Z,100791.48
2023-04-16T17:12:58.366Z,100793.79
2023-04-16T17:18:01.177Z,100796.99
2023-04-16T17:23:03.965Z,100803.02
2023-04-16T17:28:06.763Z,100808.67
2023-04-16T17:33:09.574Z,100813.20
2023-04-16T17:38:12.283Z,100813.59
2023-04-16T17:43:15.020Z,100820.19
2023-04-16T17:48:17.780Z,100819.77
2023-04-16T17:53:23.314Z,100823.63
2023-04-16T17:58:26.713Z,100828.36
2023-04-16T18:03:29.949Z,100834.22
2023-04-16T18:08:33.822Z,100847.73
2023-04-16T18:13:36.774Z,100850.75
2023-04-16T18:18:39.540Z,100856.16
2023-04-16T18:23:42.316Z,100854.27
2023-04-16T18:28:45.452Z,100856.26
2023-04-16T18:33:56.392Z,100860.13
2023-04-16T18:39:02.461Z,100867.30
2023-04-16T18:44:05.593Z,100865.25
2023-04-16T18:49:08.384Z,100865.64
2023-04-16T18:54:11.464Z,100866.73
2023-04-16T18:59:14.260Z,100869.03
2023-04-16T19:04:17.066Z,100870.27
2023-04-16T19:09:20.374Z,100870.64
2023-04-16T19:14:23.130Z,100877.46
2023-04-16T19:19:25.808Z,100874.88
2023-04-16T19:24:28.475Z,100871.05
2023-04-16T19:29:34.543Z,100874.39
2023-04-16T19:34:37.237Z,100873.05
2023-04-16T19:39:40.357Z,100870.48
2023-04-16T19:44:43.053Z,100869.77
2023-04-16T19:49:46.208Z,100867.85
2023-04-16T19:54:48.835Z,100871.17
2023-04-16T19:59:52.485Z,100863.72
2023-04-16T20:04:56.621Z,100856.64
2023-04-16T20:09:59.318Z,100858.44
2023-04-16T20:15:02.118Z,100861.23
2023-04-16T20:20:10.297Z,100857.59
2023-04-16T20:25:14.478Z,100858.52
2023-04-16T20:30:17.319Z,100860.81
2023-04-16T20:35:20.040Z,100864.48
2023-04-16T20:40:24.139Z,100865.45
2023-04-16T20:45:32.174Z,100869.23
2023-04-16T20:50:35.044Z,100873.45
2023-04-16T20:55:37.837Z,100873.95
2023-04-16T21:00:40.829Z,100876.59
2023-04-16T21:05:50.002Z,100881.70
2023-04-16T21:10:52.856Z,100885.34
2023-04-16T21:15:55.830Z,100888.25
2023-04-16T21:20:59.228Z,100884.89
2023-04-16T21:26:01.959Z,100886.10
2023-04-16T21:31:04.698Z,100893.64
2023-04-16T21:36:07.846Z,100891.34
2023-04-16T21:41:10.822Z,100888.55
2023-04-16T21:46:13.600Z,100889.15
2023-04-16T21:51:16.785Z,100888.69
2023-04-16T21:56:19.549Z,100892.61
2023-04-16T22:01:22.265Z,100890.52
2023-04-16T22:06:27.172Z,100892.09
2023-04-16T22:11:29.929Z,100892.11
2023-04-16T22:16:33.554Z,100889.21
2023-04-16T22:21:36.416Z,100889.23
2023-04-16T22:26:39.105Z,100889.02
2023-04-16T22:31:41.959Z,100890.90
2023-04-16T22:36:44.745Z,100884.63
2023-04-16T22:41:47.715Z,100886.92
2023-04-16T22:46:50.632Z,100889.86
2023-04-16T22:51:53.430Z,100893.80
2023-04-16T22:56:56.919Z,100896.89
2023-04-16T23:01:59.683Z,100899.55
2023-04-16T23:07:02.546Z,100896.46
2023-04-16T23:12:05.851Z,100898.19
2023-04-16T23:17:08.665Z,100895.17
2023-04-16T23:22:11.574Z,100894.10
2023-04-16T23:27:14.249Z,100900.90
2023-04-16T23:32:16.945Z,100900.85
2023-04-16T23:37:19.660Z,100902.41
2023-04-16T23:42:22.363Z,100905.41
2023-04-16T23:47:25.201Z,100905.59
2023-04-16T23:52:28.068Z,100909.42
2023-04-16T23:57:31.168Z,100903.94
